createdAt,value
2018-05-09T00:00:55.720Z,38.35
2018-05-09T00:01:59.057Z,38.42
2018-05-09T00:03:02.381Z,38.48
2018-05-09T00:04:05.726Z,38.53
2018-05-09T00:05:09.055Z,38.59
2018-05-09T00:06:12.361Z,38.65
2018-05-09T00:07:15.719Z,38.71
2018-05-09T00:08:19.026Z,38.76
2018-05-09T00:09:22.392Z,38.81
2018-05-09T00:10:25.740Z,38.88
2018-05-09T00:11:29.083Z,38.93
2018-05-09T00:12:32.444Z,38.98
2018-05-09T00:13:35.774Z,39.04
2018-05-09T00:14:39.095Z,39.11
2018-05-09T00:15:42.398Z,39.17
2018-05-09T00:16:45.706Z,39.23
2018-05-09T00:17:49.042Z,39.27
2018-05-09T00:18:52.376Z,39.33
2018-05-09T00:19:55.695Z,39.38
2018-05-09T00:20:58.997Z,39.46
2018-05-09T00:22:02.312Z,39.51
2018-05-09T00:23:05.654Z,39.56
2018-05-09T00:24:09.035Z,39.63
2018-05-09T00:25:12.342Z,39.69
2018-05-09T00:26:15.669Z,39.75
2018-05-09T00:27:19.014Z,39.82
2018-05-09T00:28:22.362Z,39.89
2018-05-09T00:29:25.692Z,39.96
2018-05-09T00:30:29.025Z,40.04
2018-05-09T00:31:32.336Z,40.12
2018-05-09T00:32:35.649Z,40.20
2018-05-09T00:33:38.998Z,40.32
2018-05-09T00:34:42.321Z,40.40
2018-05-09T00:35:45.642Z,40.52
2018-05-09T00:36:49.068Z,40.64
2018-05-09T00:37:52.373Z,40.75
2018-05-09T00:38:55.719Z,40.83
2018-05-09T00:39:59.190Z,40.91
2018-05-09T00:41:02.678Z,40.98
2018-05-09T00:42:05.989Z,41.08
2018-05-09T00:43:09.304Z,41.17
2018-05-09T00:44:12.642Z,41.23
2018-05-09T00:45:15.954Z,41.35
2018-05-09T00:46:19.255Z,41.50
2018-05-09T00:47:22.558Z,41.58
2018-05-09T00:48:26.614Z,41.65
2018-05-09T00:49:29.974Z,41.77
2018-05-09T00:50:33.291Z,41.90
2018-05-09T00:51:36.599Z,42.10
2018-05-09T00:52:39.919Z,42.25
2018-05-09T00:53:43.238Z,42.40
2018-05-09T00:54:46.578Z,42.64
2018-05-09T00:55:49.900Z,42.83
2018-05-09T00:56:53.225Z,43.02
2018-05-09T00:57:56.531Z,43.23
2018-05-09T00:58:59.843Z,43.46
2018-05-09T01:00:03.178Z,43.61
2018-05-09T01:01:06.980Z,43.77
2018-05-09T01:02:10.394Z,43.88
2018-05-09T01:03:13.753Z,43.98
2018-05-09T01:04:17.053Z,44.07
2018-05-09T01:05:20.381Z,44.19
2018-05-09T01:06:23.705Z,44.22
2018-05-09T01:07:27.782Z,44.32
2018-05-09T01:08:31.140Z,44.38
2018-05-09T01:09:34.551Z,44.41
2018-05-09T01:10:37.878Z,44.47
2018-05-09T01:11:41.191Z,44.48
2018-05-09T01:12:44.522Z,44.52
2018-05-09T01:13:47.818Z,44.53
2018-05-09T01:14:51.232Z,44.55
2018-05-09T01:15:54.720Z,44.57
2018-05-09T01:16:58.031Z,44.58
2018-05-09T01:18:01.352Z,44.57
2018-05-09T01:19:04.652Z,44.54
2018-05-09T01:20:07.965Z,44.52
2018-05-09T01:21:11.297Z,44.50
2018-05-09T01:22:14.603Z,44.52
2018-05-09T01:23:17.922Z,44.52
2018-05-09T01:24:21.253Z,44.52
2018-05-09T01:25:24.556Z,44.51
2018-05-09T01:26:27.915Z,44.54
2018-05-09T01:27:31.229Z,44.55
2018-05-09T01:28:34.750Z,44.58
2018-05-09T01:29:38.051Z,44.59
2018-05-09T01:30:41.382Z,44.59
2018-05-09T01:31:44.804Z,44.62
2018-05-09T01:32:48.110Z,44.65
2018-05-09T01:33:51.418Z,44.68
2018-05-09T01:34:54.739Z,44.71
2018-05-09T01:35:58.064Z,44.73
2018-05-09T01:37:01.396Z,44.80
2018-05-09T01:38:04.711Z,44.84
2018-05-09T01:40:17.564Z,44.99
2018-05-09T01:41:20.881Z,45.04
2018-05-09T01:42:24.213Z,45.18
2018-05-09T01:43:27.544Z,45.25
2018-05-09T01:44:30.871Z,45.31
2018-05-09T01:45:34.180Z,45.35
2018-05-09T01:46:37.499Z,45.37
2018-05-09T01:47:40.822Z,45.47
2018-05-09T01:48:44.125Z,45.51
2018-05-09T01:49:47.443Z,45.57
2018-05-09T01:50:50.751Z,45.62
2018-05-09T01:51:54.077Z,45.68
2018-05-09T01:52:57.414Z,45.71
2018-05-09T01:54:00.729Z,45.77
2018-05-09T01:55:04.122Z,45.85
2018-05-09T01:56:07.437Z,45.90
2018-05-09T01:57:10.728Z,45.94
2018-05-09T01:58:14.057Z,45.93
2018-05-09T01:59:17.380Z,45.96
2018-05-09T02:00:20.689Z,45.99
2018-05-09T02:01:24.184Z,46.00
2018-05-09T02:02:27.598Z,46.00
2018-05-09T02:03:30.933Z,46.06
2018-05-09T02:04:34.248Z,46.12
2018-05-09T02:05:37.643Z,46.22
2018-05-09T02:06:40.955Z,46.31
2018-05-09T02:07:44.274Z,46.28
2018-05-09T02:08:47.658Z,46.33
2018-05-09T02:09:50.974Z,46.37
2018-05-09T02:10:54.281Z,46.42
2018-05-09T02:11:57.594Z,46.48
2018-05-09T02:13:00.975Z,46.52
2018-05-09T02:14:04.300Z,46.54
2018-05-09T02:15:07.613Z,46.56
2018-05-09T02:16:10.917Z,46.56
2018-05-09T02:17:14.493Z,46.59
2018-05-09T02:18:17.815Z,46.63
2018-05-09T02:19:21.147Z,46.64
2018-05-09T02:20:24.472Z,46.65
2018-05-09T02:21:27.774Z,46.65
2018-05-09T02:22:31.149Z,46.64
2018-05-09T02:23:34.462Z,46.64
2018-05-09T02:24:37.789Z,46.65
2018-05-09T02:25:41.099Z,46.61
2018-05-09T02:26:44.411Z,46.58
2018-05-09T02:27:47.724Z,46.54
2018-05-09T02:28:51.026Z,46.49
2018-05-09T02:29:54.379Z,46.52
2018-05-09T02:30:57.689Z,46.54
2018-05-09T02:32:01.012Z,46.51
2018-05-09T02:33:04.313Z,46.49
2018-05-09T02:34:07.630Z,46.48
2018-05-09T02:35:10.959Z,46.46
2018-05-09T02:36:14.264Z,46.45
2018-05-09T02:37:17.571Z,46.44
2018-05-09T02:38:20.898Z,46.43
2018-05-09T02:39:24.356Z,46.47
2018-05-09T02:40:27.691Z,46.52
2018-05-09T02:41:31.100Z,46.56
2018-05-09T02:42:34.327Z,46.58
2018-05-09T02:43:37.669Z,46.65
2018-05-09T02:44:40.951Z,46.69
2018-05-09T02:45:44.367Z,46.79
2018-05-09T02:46:47.700Z,46.86
2018-05-09T02:47:51.007Z,46.93
2018-05-09T02:48:54.310Z,46.99
2018-05-09T02:49:57.683Z,47.05
2018-05-09T02:51:00.947Z,47.09
2018-05-09T02:52:04.259Z,47.07
2018-05-09T02:53:07.555Z,47.06
2018-05-09T02:54:10.884Z,47.06
2018-05-09T02:55:14.204Z,47.03
2018-05-09T02:56:17.526Z,47.03
2018-05-09T02:57:20.868Z,47.04
2018-05-09T02:58:24.287Z,47.03
2018-05-09T02:59:27.607Z,47.04
2018-05-09T03:00:30.931Z,47.04
2018-05-09T03:01:35.862Z,47.06
2018-05-09T03:02:39.172Z,47.07
2018-05-09T03:03:42.494Z,47.11
2018-05-09T03:04:45.810Z,47.12
2018-05-09T03:05:49.112Z,47.13
2018-05-09T03:06:52.447Z,47.16
2018-05-09T03:07:55.763Z,47.19
2018-05-09T03:08:59.082Z,47.22
2018-05-09T03:10:02.398Z,47.25
2018-05-09T03:11:05.715Z,47.27
2018-05-09T03:12:09.036Z,47.33
2018-05-09T03:13:12.342Z,47.38
2018-05-09T03:14:15.663Z,47.44
2018-05-09T03:15:19.071Z,47.46
2018-05-09T03:16:22.398Z,47.48
2018-05-09T03:17:25.722Z,47.53
2018-05-09T03:18:29.043Z,47.61
2018-05-09T03:19:32.371Z,47.64
2018-05-09T03:20:35.682Z,47.67
2018-05-09T03:21:39.028Z,47.70
2018-05-09T03:22:42.355Z,47.71
2018-05-09T03:23:45.667Z,47.77
2018-05-09T03:24:48.993Z,47.79
2018-05-09T03:25:52.311Z,47.80
2018-05-09T03:26:55.607Z,47.86
2018-05-09T03:27:58.939Z,47.94
2018-05-09T03:29:02.251Z,47.98
2018-05-09T03:30:05.744Z,48.04
2018-05-09T03:31:09.054Z,48.11
2018-05-09T03:32:12.359Z,48.15
2018-05-09T03:33:15.706Z,48.20
2018-05-09T03:34:19.025Z,48.30
2018-05-09T03:35:22.323Z,48.38
2018-05-09T03:36:25.710Z,48.44
2018-05-09T03:37:29.044Z,48.50
2018-05-09T03:38:32.434Z,48.56
2018-05-09T03:39:35.774Z,48.62
2018-05-09T03:40:39.093Z,48.64
2018-05-09T03:41:42.410Z,48.67
2018-05-09T03:42:45.747Z,48.68
2018-05-09T03:43:49.074Z,48.76
2018-05-09T03:44:52.396Z,48.79
2018-05-09T03:45:55.720Z,48.81
2018-05-09T03:46:59.043Z,48.82
2018-05-09T03:48:02.350Z,48.82
2018-05-09T03:49:05.679Z,48.85
2018-05-09T03:50:08.975Z,48.94
2018-05-09T03:51:12.291Z,49.02
2018-05-09T03:52:15.586Z,49.11
2018-05-09T03:53:18.913Z,49.25
2018-05-09T03:54:22.234Z,49.34
2018-05-09T03:55:25.547Z,49.37
2018-05-09T03:56:28.981Z,49.42
2018-05-09T03:57:32.382Z,49.56
2018-05-09T03:58:35.709Z,49.66
2018-05-09T03:59:39.024Z,49.80
2018-05-09T04:00:42.327Z,49.89
2018-05-09T04:01:58.427Z,49.89
2018-05-09T04:03:13.376Z,49.99
2018-05-09T04:04:28.656Z,50.10
2018-05-09T04:05:43.743Z,50.18
2018-05-09T04:06:58.799Z,50.29
2018-05-09T04:08:13.834Z,50.33
2018-05-09T04:09:28.954Z,50.38
2018-05-09T04:10:32.227Z,50.40
2018-05-09T04:11:35.591Z,50.40
2018-05-09T04:12:38.909Z,50.35
2018-05-09T04:13:42.211Z,50.30
2018-05-09T04:14:45.590Z,50.24
2018-05-09T04:15:48.824Z,50.22
2018-05-09T04:16:52.146Z,50.17
2018-05-09T04:17:55.446Z,50.15
2018-05-09T04:18:58.773Z,50.04
2018-05-09T04:20:02.090Z,50.00
2018-05-09T04:21:05.415Z,49.87
2018-05-09T04:22:08.873Z,49.76
2018-05-09T04:23:12.254Z,49.66
2018-05-09T04:24:15.507Z,49.56
2018-05-09T04:25:18.817Z,49.43
2018-05-09T04:26:22.127Z,49.38
2018-05-09T04:27:25.460Z,49.30
2018-05-09T04:28:28.779Z,49.25
2018-05-09T04:29:32.102Z,49.20
2018-05-09T04:30:35.414Z,49.18
2018-05-09T04:31:38.743Z,49.13
2018-05-09T04:32:42.084Z,49.10
2018-05-09T04:33:45.471Z,49.08
2018-05-09T04:34:48.784Z,49.06
2018-05-09T04:35:52.103Z,49.05
2018-05-09T04:36:55.423Z,49.04
2018-05-09T04:37:58.777Z,49.02
2018-05-09T04:39:02.103Z,49.02
2018-05-09T04:40:05.451Z,49.01
2018-05-09T04:41:08.771Z,49.04
2018-05-09T04:42:12.121Z,49.04
2018-05-09T04:43:15.475Z,49.01
2018-05-09T04:44:18.789Z,48.97
2018-05-09T04:45:22.141Z,48.96
2018-05-09T04:46:25.458Z,48.96
2018-05-09T04:47:29.034Z,48.98
2018-05-09T04:48:32.350Z,48.96
2018-05-09T04:49:35.698Z,48.95
2018-05-09T04:50:38.997Z,48.91
2018-05-09T04:51:42.308Z,48.85
2018-05-09T04:52:45.627Z,48.79
2018-05-09T04:53:48.973Z,48.73
2018-05-09T04:54:52.365Z,48.71
2018-05-09T04:55:55.683Z,48.69
2018-05-09T04:56:59.054Z,48.67
2018-05-09T04:58:02.467Z,48.66
2018-05-09T04:59:05.796Z,48.63
2018-05-09T05:00:09.111Z,48.62
2018-05-09T05:01:12.424Z,48.58
2018-05-09T05:02:15.963Z,48.58
2018-05-09T05:03:19.288Z,48.57
2018-05-09T05:04:22.646Z,48.57
2018-05-09T05:05:25.969Z,48.58
2018-05-09T05:06:29.289Z,48.60
2018-05-09T05:07:32.636Z,48.60
2018-05-09T05:08:35.961Z,48.63
2018-05-09T05:09:39.306Z,48.68
2018-05-09T05:10:42.715Z,48.70
2018-05-09T05:11:46.023Z,48.73
2018-05-09T05:12:49.357Z,48.75
2018-05-09T05:13:52.698Z,48.76
2018-05-09T05:14:56.082Z,48.76
2018-05-09T05:15:59.379Z,48.67
2018-05-09T05:17:02.699Z,48.65
2018-05-09T05:18:06.042Z,48.55
2018-05-09T05:19:09.362Z,48.44
2018-05-09T05:20:12.692Z,48.38
2018-05-09T05:21:16.015Z,48.37
2018-05-09T05:22:19.367Z,48.34
2018-05-09T05:23:22.692Z,48.28
2018-05-09T05:24:26.247Z,48.00
2018-05-09T05:25:29.623Z,47.60
2018-05-09T05:26:32.950Z,47.16
2018-05-09T05:27:36.283Z,46.60
2018-05-09T05:28:39.598Z,46.15
2018-05-09T05:29:42.928Z,45.67
2018-05-09T05:30:46.269Z,45.17
2018-05-09T05:31:49.607Z,44.66
2018-05-09T05:32:52.917Z,44.17
2018-05-09T05:33:56.404Z,43.71
2018-05-09T05:34:59.720Z,43.33
2018-05-09T05:36:03.059Z,42.98
2018-05-09T05:37:06.375Z,42.53
2018-05-09T05:38:09.701Z,42.01
2018-05-09T05:39:13.032Z,41.39
2018-05-09T05:40:16.428Z,40.90
2018-05-09T05:41:19.762Z,40.48
2018-05-09T05:42:23.167Z,40.04
2018-05-09T05:43:26.615Z,39.64
2018-05-09T05:44:29.946Z,39.24
2018-05-09T05:45:33.307Z,38.77
2018-05-09T05:46:36.706Z,38.39
2018-05-09T05:47:40.033Z,38.00
2018-05-09T05:48:43.322Z,37.72
2018-05-09T05:49:46.703Z,37.45
2018-05-09T05:50:50.112Z,37.16
2018-05-09T05:51:53.429Z,36.88
2018-05-09T05:52:56.787Z,36.64
2018-05-09T05:54:00.115Z,36.32
2018-05-09T05:55:03.426Z,35.99
2018-05-09T05:56:06.830Z,35.70
2018-05-09T05:57:10.144Z,35.50
2018-05-09T05:58:13.484Z,35.28
2018-05-09T05:59:16.827Z,35.15
2018-05-09T06:00:20.136Z,34.98
2018-05-09T06:01:23.543Z,34.75
2018-05-09T06:02:27.858Z,34.56
2018-05-09T06:03:31.193Z,34.28
2018-05-09T06:04:34.573Z,34.00
2018-05-09T06:05:37.999Z,33.71
2018-05-09T06:06:41.342Z,33.41
2018-05-09T06:07:44.679Z,33.12
2018-05-09T06:08:47.998Z,32.90
2018-05-09T06:09:51.333Z,32.71
2018-05-09T06:10:54.691Z,32.45
2018-05-09T06:11:58.088Z,32.25
2018-05-09T06:13:01.426Z,31.97
2018-05-09T06:14:04.761Z,31.73
2018-05-09T06:15:08.067Z,31.52
2018-05-09T06:16:11.423Z,31.27
2018-05-09T06:17:14.779Z,31.07
2018-05-09T06:18:18.082Z,30.88
2018-05-09T06:19:21.420Z,30.68
2018-05-09T06:20:24.802Z,30.48
2018-05-09T06:21:28.120Z,30.29
2018-05-09T06:22:31.470Z,30.21
2018-05-09T06:23:34.803Z,30.08
2018-05-09T06:24:38.111Z,29.90
2018-05-09T06:25:41.447Z,29.74
2018-05-09T06:26:44.756Z,29.58
2018-05-09T06:27:48.106Z,29.44
2018-05-09T06:28:51.779Z,29.18
2018-05-09T06:29:55.100Z,28.98
2018-05-09T06:30:58.558Z,28.86
2018-05-09T06:32:01.846Z,28.69
2018-05-09T06:33:05.156Z,28.55
2018-05-09T06:34:09.472Z,28.35
2018-05-09T06:35:12.761Z,28.17
2018-05-09T06:36:16.149Z,28.01
2018-05-09T06:37:19.671Z,27.91
2018-05-09T06:38:23.021Z,27.80
2018-05-09T06:39:26.489Z,27.71
2018-05-09T06:40:29.835Z,27.57
2018-05-09T06:41:33.172Z,27.52
2018-05-09T06:42:36.508Z,27.54
2018-05-09T06:43:39.853Z,27.46
2018-05-09T06:44:43.521Z,27.32
2018-05-09T06:45:46.875Z,27.29
2018-05-09T06:46:50.191Z,27.24
2018-05-09T06:47:53.490Z,27.17
2018-05-09T06:48:56.861Z,27.17
2018-05-09T06:50:00.267Z,27.13
2018-05-09T06:51:03.544Z,26.99
2018-05-09T06:52:06.975Z,26.87
2018-05-09T06:53:10.350Z,26.72
2018-05-09T06:54:13.649Z,26.57
2018-05-09T06:55:17.003Z,26.48
2018-05-09T06:56:20.323Z,26.40
2018-05-09T06:57:23.655Z,26.32
2018-05-09T06:58:26.979Z,26.20
2018-05-09T06:59:30.339Z,26.23
2018-05-09T07:00:33.834Z,26.41
2018-05-09T07:01:37.142Z,26.65
2018-05-09T07:02:40.656Z,26.93
2018-05-09T07:03:43.997Z,27.22
2018-05-09T07:04:47.327Z,27.57
2018-05-09T07:05:50.687Z,27.90
2018-05-09T07:06:54.113Z,28.16
2018-05-09T07:07:57.423Z,28.45
2018-05-09T07:09:01.173Z,28.80
2018-05-09T07:10:04.489Z,29.09
2018-05-09T07:11:07.880Z,29.43
2018-05-09T07:12:11.211Z,29.68
2018-05-09T07:13:14.531Z,29.97
2018-05-09T07:14:17.899Z,30.20
2018-05-09T07:15:21.203Z,30.42
2018-05-09T07:16:24.557Z,30.60
2018-05-09T07:17:27.858Z,30.76
2018-05-09T07:18:31.169Z,30.90
2018-05-09T07:19:34.541Z,31.08
2018-05-09T07:20:37.844Z,31.23
2018-05-09T07:21:41.179Z,31.41
2018-05-09T07:22:44.498Z,31.66
2018-05-09T07:23:47.808Z,31.91
2018-05-09T07:24:51.107Z,32.02
2018-05-09T07:25:54.413Z,32.22
2018-05-09T07:26:57.775Z,32.41
2018-05-09T07:28:01.084Z,32.53
2018-05-09T07:29:04.391Z,32.65
2018-05-09T07:30:07.815Z,32.74
2018-05-09T07:31:11.145Z,32.91
2018-05-09T07:32:14.483Z,32.99
2018-05-09T07:33:17.826Z,33.07
2018-05-09T07:34:21.215Z,33.19
2018-05-09T07:35:24.562Z,33.28
2018-05-09T07:36:27.768Z,33.27
2018-05-09T07:37:31.101Z,33.35
2018-05-09T07:38:34.421Z,33.40
2018-05-09T07:39:37.731Z,33.57
2018-05-09T07:40:41.064Z,33.54
2018-05-09T07:41:44.395Z,33.63
2018-05-09T07:42:47.711Z,33.72
2018-05-09T07:43:51.048Z,33.67
2018-05-09T07:44:54.345Z,33.72
2018-05-09T07:45:57.656Z,33.74
2018-05-09T07:47:01.151Z,33.81
2018-05-09T07:48:04.699Z,33.94
2018-05-09T07:49:08.103Z,33.95
2018-05-09T07:50:11.462Z,34.08
2018-05-09T07:51:14.782Z,34.26
2018-05-09T07:52:18.106Z,34.48
2018-05-09T07:53:21.458Z,34.65
2018-05-09T07:54:24.768Z,34.83
2018-05-09T07:55:28.115Z,35.01
2018-05-09T07:56:31.609Z,35.21
2018-05-09T07:57:34.940Z,35.38
2018-05-09T07:58:38.315Z,35.37
2018-05-09T07:59:41.634Z,35.41
2018-05-09T08:00:44.939Z,35.49
2018-05-09T08:01:48.267Z,35.58
2018-05-09T08:02:53.117Z,35.60
2018-05-09T08:03:56.449Z,35.66
2018-05-09T08:05:00.544Z,35.76
2018-05-09T08:06:03.881Z,35.90
2018-05-09T08:07:07.423Z,36.03
2018-05-09T08:08:10.828Z,36.15
2018-05-09T08:09:14.096Z,36.26
2018-05-09T08:10:17.471Z,36.21
2018-05-09T08:11:20.842Z,36.22
2018-05-09T08:12:24.162Z,36.24
2018-05-09T08:13:29.165Z,36.25
2018-05-09T08:14:32.569Z,36.26
2018-05-09T08:15:35.874Z,36.30
2018-05-09T08:16:39.231Z,36.43
2018-05-09T08:17:42.543Z,36.64
2018-05-09T08:18:45.851Z,36.88
2018-05-09T08:19:49.448Z,37.07
2018-05-09T08:20:52.765Z,37.20
2018-05-09T08:21:56.095Z,37.31
2018-05-09T08:22:59.410Z,37.32
2018-05-09T08:24:02.768Z,37.27
2018-05-09T08:25:09.041Z,37.27
2018-05-09T08:26:14.282Z,37.26
2018-05-09T08:27:19.392Z,37.30
2018-05-09T08:28:24.334Z,37.49
2018-05-09T08:29:30.260Z,37.60
2018-05-09T08:30:34.436Z,37.68
2018-05-09T08:31:45.408Z,37.73
2018-05-09T08:32:50.529Z,37.67
2018-05-09T08:33:56.427Z,37.48
2018-05-09T08:34:59.781Z,37.47
2018-05-09T08:36:03.158Z,37.54
2018-05-09T08:37:06.474Z,37.54
2018-05-09T08:38:09.794Z,37.53
2018-05-09T08:39:13.082Z,37.59
2018-05-09T08:40:16.387Z,37.69
2018-05-09T08:41:19.724Z,37.72
2018-05-09T08:42:23.031Z,37.55
2018-05-09T08:43:26.457Z,37.46
2018-05-09T08:44:29.727Z,37.38
2018-05-09T08:45:33.019Z,37.32
2018-05-09T08:46:36.359Z,37.28
2018-05-09T08:47:39.687Z,37.19
2018-05-09T08:48:42.998Z,37.11
2018-05-09T08:49:46.338Z,37.00
2018-05-09T08:50:49.646Z,36.97
2018-05-09T08:51:53.086Z,37.05
2018-05-09T08:52:56.396Z,37.15
2018-05-09T08:53:59.705Z,37.20
2018-05-09T08:55:03.024Z,37.14
2018-05-09T08:56:06.388Z,37.16
2018-05-09T08:57:09.734Z,37.12
2018-05-09T08:58:13.027Z,37.09
2018-05-09T08:59:16.347Z,37.06
2018-05-09T09:00:19.679Z,37.07
2018-05-09T09:01:22.985Z,37.17
2018-05-09T09:02:26.365Z,37.18
2018-05-09T09:03:29.792Z,37.19
2018-05-09T09:04:33.311Z,37.07
2018-05-09T09:05:36.627Z,37.03
2018-05-09T09:06:39.962Z,37.05
2018-05-09T09:07:43.606Z,37.09
2018-05-09T09:08:46.935Z,37.08
2018-05-09T09:09:50.299Z,36.92
2018-05-09T09:10:53.687Z,36.82
2018-05-09T09:11:56.981Z,36.74
2018-05-09T09:13:00.341Z,36.75
2018-05-09T09:14:03.663Z,36.59
2018-05-09T09:15:06.960Z,36.57
2018-05-09T09:16:10.362Z,36.55
2018-05-09T09:17:13.686Z,36.63
2018-05-09T09:18:17.072Z,36.57
2018-05-09T09:19:20.386Z,36.46
2018-05-09T09:20:24.062Z,36.47
2018-05-09T09:21:27.379Z,36.48
2018-05-09T09:22:30.712Z,36.55
2018-05-09T09:23:34.062Z,36.64
2018-05-09T09:24:37.371Z,36.64
2018-05-09T09:25:40.668Z,36.57
2018-05-09T09:26:44.085Z,36.50
2018-05-09T09:27:47.435Z,36.54
2018-05-09T09:28:50.770Z,36.58
2018-05-09T09:29:54.099Z,36.64
2018-05-09T09:30:57.460Z,36.66
2018-05-09T09:32:00.767Z,36.60
2018-05-09T09:33:04.083Z,36.49
2018-05-09T09:34:07.415Z,36.41
2018-05-09T09:35:10.728Z,36.29
2018-05-09T09:36:14.051Z,36.19
2018-05-09T09:37:17.359Z,36.22
2018-05-09T09:38:20.677Z,36.19
2018-05-09T09:39:24.227Z,36.17
2018-05-09T09:40:27.545Z,36.21
2018-05-09T09:41:31.037Z,36.14
2018-05-09T09:42:34.262Z,35.94
2018-05-09T09:43:37.585Z,35.80
2018-05-09T09:44:41.196Z,35.68
2018-05-09T09:45:44.519Z,35.54
2018-05-09T09:46:47.842Z,35.47
2018-05-09T09:47:51.170Z,35.49
2018-05-09T09:48:54.547Z,35.52
2018-05-09T09:49:57.923Z,35.51
2018-05-09T09:51:01.243Z,35.34
2018-05-09T09:52:04.600Z,35.19
2018-05-09T09:53:07.980Z,35.04
2018-05-09T09:54:11.300Z,34.92
2018-05-09T09:55:15.103Z,34.81
2018-05-09T09:56:18.692Z,34.75
2018-05-09T09:57:22.018Z,34.78
2018-05-09T09:58:25.359Z,34.81
2018-05-09T09:59:28.707Z,34.89
2018-05-09T10:00:32.092Z,34.99
2018-05-09T10:01:35.526Z,34.78
2018-05-09T10:02:38.785Z,34.64
2018-05-09T10:03:42.319Z,34.54
2018-05-09T10:04:45.608Z,34.52
2018-05-09T10:05:48.940Z,34.34
2018-05-09T10:06:52.280Z,34.41
2018-05-09T10:07:55.609Z,34.53
2018-05-09T10:08:58.934Z,34.60
2018-05-09T10:10:02.343Z,34.60
2018-05-09T10:11:05.667Z,34.55
2018-05-09T10:12:08.978Z,34.70
2018-05-09T10:13:12.391Z,34.66
2018-05-09T10:14:15.706Z,34.67
2018-05-09T10:15:19.008Z,34.71
2018-05-09T10:16:22.355Z,34.73
2018-05-09T10:17:25.698Z,34.68
2018-05-09T10:18:28.996Z,34.64
2018-05-09T10:19:32.298Z,34.50
2018-05-09T10:20:35.615Z,34.50
2018-05-09T10:21:38.975Z,34.46
2018-05-09T10:22:42.286Z,34.39
2018-05-09T10:23:45.606Z,34.37
2018-05-09T10:24:48.914Z,34.28
2018-05-09T10:25:52.316Z,34.26
2018-05-09T10:26:55.652Z,34.22
2018-05-09T10:27:59.077Z,34.22
2018-05-09T10:29:02.432Z,34.24
2018-05-09T10:30:05.741Z,34.28
2018-05-09T10:31:09.155Z,34.30
2018-05-09T10:32:12.490Z,34.34
2018-05-09T10:33:15.798Z,34.43
2018-05-09T10:34:19.124Z,34.40
2018-05-09T10:35:22.439Z,34.34
2018-05-09T10:36:25.767Z,34.28
2018-05-09T10:37:29.114Z,34.22
2018-05-09T10:38:32.470Z,34.17
2018-05-09T10:39:35.838Z,34.26
2018-05-09T10:40:39.174Z,34.19
2018-05-09T10:41:42.491Z,34.07
2018-05-09T10:42:45.834Z,34.05
2018-05-09T10:43:49.150Z,34.11
2018-05-09T10:44:52.500Z,34.09
2018-05-09T10:45:55.810Z,34.10
2018-05-09T10:46:59.199Z,34.08
2018-05-09T10:48:02.572Z,34.05
2018-05-09T10:49:05.868Z,33.99
2018-05-09T10:50:09.189Z,34.09
2018-05-09T10:51:12.575Z,34.20
2018-05-09T10:52:15.895Z,34.31
2018-05-09T10:53:19.252Z,34.41
2018-05-09T10:54:22.595Z,34.38
2018-05-09T10:55:25.921Z,34.46
2018-05-09T10:56:29.240Z,34.53
2018-05-09T10:57:32.602Z,34.51
2018-05-09T10:58:35.970Z,33.46
2018-05-09T10:59:39.271Z,32.90
2018-05-09T11:00:42.603Z,32.48
2018-05-09T11:01:45.924Z,32.27
2018-05-09T11:02:49.249Z,31.50
2018-05-09T11:03:53.543Z,31.23
2018-05-09T11:04:56.877Z,31.05
2018-05-09T11:06:00.184Z,30.98
2018-05-09T11:07:03.496Z,30.91
2018-05-09T11:08:06.853Z,30.93
2018-05-09T11:09:10.196Z,30.78
2018-05-09T11:10:13.520Z,30.50
2018-05-09T11:11:16.807Z,30.36
2018-05-09T11:12:20.151Z,30.30
2018-05-09T11:13:23.487Z,30.35
2018-05-09T11:14:26.815Z,30.47
2018-05-09T11:15:30.112Z,30.35
2018-05-09T11:16:33.415Z,30.25
2018-05-09T11:17:36.813Z,30.18
2018-05-09T11:18:40.179Z,30.11
2018-05-09T11:19:43.517Z,30.16
2018-05-09T11:20:46.828Z,30.28
2018-05-09T11:21:50.157Z,30.44
2018-05-09T11:22:53.520Z,30.54
2018-05-09T11:23:56.829Z,30.60
2018-05-09T11:25:00.148Z,30.60
2018-05-09T11:26:03.461Z,30.63
2018-05-09T11:27:06.766Z,30.58
2018-05-09T11:28:10.096Z,30.60
2018-05-09T11:29:13.407Z,30.59
2018-05-09T11:30:16.752Z,30.69
2018-05-09T11:31:20.122Z,30.68
2018-05-09T11:32:23.424Z,30.69
2018-05-09T11:33:26.727Z,30.76
2018-05-09T11:34:30.086Z,30.91
2018-05-09T11:35:33.409Z,31.10
2018-05-09T11:36:36.738Z,31.30
2018-05-09T11:37:40.048Z,31.09
2018-05-09T11:38:43.384Z,31.27
2018-05-09T11:39:46.634Z,31.42
2018-05-09T11:40:49.982Z,31.17
2018-05-09T11:41:53.527Z,31.04
2018-05-09T11:42:56.835Z,30.74
2018-05-09T11:44:00.187Z,30.55
2018-05-09T11:45:03.582Z,30.53
2018-05-09T11:46:06.978Z,30.60
2018-05-09T11:47:10.276Z,30.74
2018-05-09T11:48:13.577Z,30.81
2018-05-09T11:49:16.907Z,30.85
2018-05-09T11:50:20.210Z,30.69
2018-05-09T11:51:23.533Z,30.50
2018-05-09T11:52:26.860Z,30.38
2018-05-09T11:53:30.240Z,30.49
2018-05-09T11:54:33.599Z,30.50
2018-05-09T11:55:36.890Z,30.59
2018-05-09T11:56:40.304Z,30.65
2018-05-09T11:57:43.623Z,30.77
2018-05-09T11:58:46.938Z,30.67
2018-05-09T11:59:50.246Z,30.74
2018-05-09T12:00:53.607Z,30.66
2018-05-09T12:01:56.952Z,30.25
2018-05-09T12:03:00.264Z,30.01
2018-05-09T12:04:03.758Z,29.85
2018-05-09T12:05:07.070Z,29.91
2018-05-09T12:06:10.376Z,30.15
2018-05-09T12:07:13.729Z,30.05
2018-05-09T12:08:17.120Z,29.87
2018-05-09T12:09:20.444Z,29.54
2018-05-09T12:10:23.763Z,29.31
2018-05-09T12:11:27.286Z,29.26
2018-05-09T12:12:30.619Z,29.29
2018-05-09T12:13:33.964Z,29.52
2018-05-09T12:14:37.347Z,29.59
2018-05-09T12:15:40.646Z,29.58
2018-05-09T12:16:43.951Z,29.61
2018-05-09T12:17:47.356Z,29.60
2018-05-09T12:18:50.691Z,29.71
2018-05-09T12:19:54.012Z,29.80
2018-05-09T12:20:57.372Z,29.94
2018-05-09T12:22:00.675Z,29.98
2018-05-09T12:23:04.100Z,29.99
2018-05-09T12:24:07.461Z,30.07
2018-05-09T12:25:10.802Z,29.97
2018-05-09T12:26:14.114Z,29.84
2018-05-09T12:27:17.436Z,29.75
2018-05-09T12:28:20.774Z,29.67
2018-05-09T12:29:24.119Z,29.65
2018-05-09T12:30:27.430Z,29.35
2018-05-09T12:31:30.809Z,28.99
2018-05-09T12:32:34.128Z,28.58
2018-05-09T12:33:37.492Z,28.36
2018-05-09T12:34:41.122Z,28.28
2018-05-09T12:35:44.431Z,28.27
2018-05-09T12:36:47.730Z,28.34
2018-05-09T12:37:51.035Z,28.43
2018-05-09T12:38:54.381Z,28.54
2018-05-09T12:39:57.839Z,28.71
2018-05-09T12:41:01.136Z,28.81
2018-05-09T12:42:04.460Z,28.83
2018-05-09T12:43:08.072Z,28.75
2018-05-09T12:44:11.402Z,28.69
2018-05-09T12:45:14.721Z,28.71
2018-05-09T12:46:18.018Z,28.77
2018-05-09T12:47:21.336Z,28.83
2018-05-09T12:48:25.029Z,28.64
2018-05-09T12:49:28.368Z,28.53
2018-05-09T12:50:31.678Z,28.72
2018-05-09T12:51:34.986Z,28.99
2018-05-09T12:52:38.292Z,29.23
2018-05-09T12:53:41.610Z,29.37
2018-05-09T12:54:44.934Z,29.03
2018-05-09T12:55:48.288Z,28.79
2018-05-09T12:56:51.595Z,28.69
2018-05-09T12:57:54.908Z,28.62
2018-05-09T12:58:58.222Z,28.59
2018-05-09T13:00:01.597Z,28.60
2018-05-09T13:01:04.933Z,28.71
2018-05-09T13:02:08.252Z,28.91
2018-05-09T13:03:11.587Z,29.07
2018-05-09T13:04:17.291Z,29.17
2018-05-09T13:05:20.619Z,29.26
2018-05-09T13:06:23.956Z,29.43
2018-05-09T13:07:27.317Z,29.49
2018-05-09T13:08:30.584Z,29.57
2018-05-09T13:09:33.883Z,29.55
2018-05-09T13:10:37.210Z,29.53
2018-05-09T13:11:40.533Z,29.58
2018-05-09T13:12:43.837Z,29.66
2018-05-09T13:13:47.156Z,29.77
2018-05-09T13:14:50.530Z,29.81
2018-05-09T13:15:53.920Z,29.89
2018-05-09T13:16:57.302Z,29.85
2018-05-09T13:18:00.683Z,29.87
2018-05-09T13:19:04.144Z,29.75
2018-05-09T13:20:07.500Z,29.29
2018-05-09T13:21:10.851Z,28.78
2018-05-09T13:22:14.225Z,28.52
2018-05-09T13:23:17.512Z,28.28
2018-05-09T13:24:21.176Z,28.08
2018-05-09T13:25:24.633Z,27.87
2018-05-09T13:26:27.958Z,27.84
2018-05-09T13:27:31.437Z,27.68
2018-05-09T13:28:34.770Z,27.60
2018-05-09T13:29:38.142Z,27.55
2018-05-09T13:30:41.519Z,27.46
2018-05-09T13:31:44.857Z,27.39
2018-05-09T13:32:48.203Z,27.39
2018-05-09T13:33:51.494Z,27.53
2018-05-09T13:34:54.812Z,27.86
2018-05-09T13:35:58.140Z,28.05
2018-05-09T13:37:01.461Z,28.08
2018-05-09T13:38:04.782Z,28.16
2018-05-09T13:39:08.139Z,28.25